PWSweather.com
Personal Weather Stations
Station Observations
KPAAUBUR15
Lake Wynonah, Auburn, PA 17922

Lake WynonahAuburn, PA 17922

Lat: 40.582723, Lon: -76.193106

Elevation: 724

Station Type: Davis Vantage Pro2

http://WynonahWeather.com

High Low Average
Temperature 43.3°F6.3°C 33.2°F0.7°C 37.7°F3.2°C
Dew Point 41.0°F5.0°C 24.7°F-4.1°C 35.1°F1.7°C
Winds 10.4 mph 16.7 kmh Calm Calm 2.0 mph S3.2 kmh S
Wind Gusts 32.2 mph51.8 kmh -- 4.0 mph6.4 kmh
Humidity 100% 55% 92%
Pressure 30.09 in1019.0 mb 29.39 in995.3 mb -
Precipitation 0.49 in12.4 mm - -
Hour Temp Dew Point Humidity Winds Wind Gusts Pressure Precip Precip Rate Daily Precip Total
12:00 AM 33.2°F0.7°C 32.7°F0.4°C 98% Calm Calm 2.3 mph3.7 kmh 30.13 in1020.3 mb - 0.00 in0.0 mm 0.11 in2.8 mm
12:05 AM 33.2°F0.7°C 32.7°F0.4°C 98% 4.6 mph E7.4 kmh E 4.6 mph7.4 kmh 30.13 in1020.3 mb - 0.00 in0.0 mm 0.11 in2.8 mm
12:10 AM 33.2°F0.7°C 32.7°F0.4°C 98% 1.2 mph E1.9 kmh E 2.3 mph3.7 kmh 30.13 in1020.3 mb - 0.00 in0.0 mm 0.11 in2.8 mm
12:15 AM 33.2°F0.7°C 32.7°F0.4°C 98% 2.3 mph E3.7 kmh E 4.6 mph7.4 kmh 30.12 in1020.0 mb - 0.00 in0.0 mm 0.11 in2.8 mm
12:20 AM 33.2°F0.7°C 32.7°F0.4°C 98% 1.2 mph ENE1.9 kmh ENE 4.6 mph7.4 kmh 30.12 in1020.0 mb - 0.00 in0.0 mm 0.11 in2.8 mm
12:25 AM 33.2°F0.7°C 32.7°F0.4°C 98% Calm Calm -- 30.11 in1019.6 mb - 0.00 in0.0 mm 0.11 in2.8 mm
12:30 AM 33.3°F0.7°C 32.8°F0.4°C 98% 1.2 mph E1.9 kmh E 2.3 mph3.7 kmh 30.11 in1019.6 mb - 0.00 in0.0 mm 0.11 in2.8 mm
12:35 AM 33.3°F0.7°C 32.7°F0.4°C 98% 1.2 mph E1.9 kmh E 3.5 mph5.6 kmh 30.10 in1019.3 mb - 0.00 in0.0 mm 0.11 in2.8 mm
12:40 AM 33.2°F0.7°C 32.7°F0.4°C 98% Calm Calm -- 30.10 in1019.3 mb - 0.00 in0.0 mm 0.11 in2.8 mm
12:45 AM 33.3°F0.7°C 32.8°F0.4°C 98% 3.5 mph ENE5.6 kmh ENE 5.8 mph9.3 kmh 30.10 in1019.3 mb - 0.00 in0.0 mm 0.11 in2.8 mm
12:50 AM 33.3°F0.7°C 32.8°F0.4°C 98% 1.2 mph ENE1.9 kmh ENE 3.5 mph5.6 kmh 30.09 in1019.0 mb - 0.00 in0.0 mm 0.11 in2.8 mm
12:55 AM 33.3°F0.7°C 32.8°F0.4°C 98% 2.3 mph E3.7 kmh E 3.5 mph5.6 kmh 30.09 in1019.0 mb - 0.01 in0.3 mm 0.12 in3.0 mm
01:00 AM 33.3°F0.7°C 32.8°F0.4°C 98% 2.3 mph E3.7 kmh E 3.5 mph5.6 kmh 30.09 in1019.0 mb - 0.00 in0.0 mm 0.01 in0.3 mm
01:05 AM 33.3°F0.7°C 32.8°F0.4°C 98% Calm Calm -- 30.09 in1019.0 mb - 0.00 in0.0 mm 0.01 in0.3 mm
01:10 AM 33.3°F0.7°C 32.8°F0.4°C 98% 1.2 mph E1.9 kmh E 3.5 mph5.6 kmh 30.09 in1019.0 mb - 0.00 in0.0 mm 0.01 in0.3 mm
01:15 AM 33.3°F0.7°C 32.8°F0.4°C 98% Calm Calm -- 30.09 in1019.0 mb - 0.00 in0.0 mm 0.01 in0.3 mm
01:20 AM 33.3°F0.7°C 32.8°F0.4°C 98% 1.2 mph E1.9 kmh E 3.5 mph5.6 kmh 30.08 in1018.6 mb - 0.00 in0.0 mm 0.01 in0.3 mm
01:25 AM 33.4°F0.8°C 32.9°F0.5°C 98% Calm Calm 3.5 mph5.6 kmh 30.08 in1018.6 mb - 0.00 in0.0 mm 0.01 in0.3 mm
01:30 AM 33.4°F0.8°C 32.9°F0.5°C 98% 2.3 mph ENE3.7 kmh ENE 3.5 mph5.6 kmh 30.07 in1018.3 mb - 0.00 in0.0 mm 0.01 in0.3 mm
01:35 AM 33.4°F0.8°C 32.9°F0.5°C 98% 2.3 mph ENE3.7 kmh ENE 3.5 mph5.6 kmh 30.07 in1018.3 mb - 0.00 in0.0 mm 0.01 in0.3 mm
01:40 AM 33.5°F0.8°C 33.0°F0.6°C 98% 2.3 mph ENE3.7 kmh ENE 5.8 mph9.3 kmh 30.06 in1017.9 mb - 0.00 in0.0 mm 0.01 in0.3 mm
01:45 AM 33.5°F0.8°C 33.0°F0.6°C 98% 4.6 mph ENE7.4 kmh ENE 5.8 mph9.3 kmh 30.05 in1017.6 mb - 0.01 in0.3 mm 0.01 in0.3 mm
01:50 AM 33.4°F0.8°C 32.9°F0.5°C 98% 1.2 mph ENE1.9 kmh ENE 2.3 mph3.7 kmh 30.05 in1017.6 mb - 0.00 in0.0 mm 0.01 in0.3 mm
01:55 AM 33.4°F0.8°C 32.9°F0.5°C 98% 2.3 mph ENE3.7 kmh ENE 5.8 mph9.3 kmh 30.04 in1017.3 mb - 0.00 in0.0 mm 0.01 in0.3 mm
02:00 AM 33.3°F0.7°C 32.8°F0.4°C 98% 2.3 mph ENE3.7 kmh ENE 4.6 mph7.4 kmh 30.05 in1017.6 mb - 0.00 in0.0 mm 0.01 in0.3 mm
02:05 AM 33.4°F0.8°C 32.9°F0.5°C 98% Calm Calm 1.2 mph1.9 kmh 30.05 in1017.6 mb - 0.00 in0.0 mm 0.01 in0.3 mm
02:10 AM 33.5°F0.8°C 33.0°F0.6°C 98% Calm Calm -- 30.05 in1017.6 mb - 0.00 in0.0 mm 0.01 in0.3 mm
02:15 AM 33.5°F0.8°C 33.0°F0.6°C 98% Calm Calm -- 30.04 in1017.3 mb - 0.00 in0.0 mm 0.01 in0.3 mm
02:20 AM 33.5°F0.8°C 33.0°F0.6°C 98% Calm Calm -- 30.05 in1017.6 mb - 0.00 in0.0 mm 0.01 in0.3 mm
02:25 AM 33.5°F0.8°C 33.0°F0.6°C 98% Calm Calm -- 30.05 in1017.6 mb - 0.00 in0.0 mm 0.01 in0.3 mm
02:30 AM 33.5°F0.8°C 33.0°F0.6°C 98% Calm Calm -- 30.04 in1017.3 mb - 0.00 in0.0 mm 0.01 in0.3 mm
02:35 AM 33.5°F0.8°C 33.0°F0.6°C 98% Calm Calm -- 30.04 in1017.3 mb - 0.01 in0.3 mm 0.02 in0.5 mm
02:40 AM 33.4°F0.8°C 32.9°F0.5°C 98% Calm Calm -- 30.03 in1016.9 mb - 0.00 in0.0 mm 0.02 in0.5 mm
02:45 AM 33.4°F0.8°C 32.9°F0.5°C 98% Calm Calm -- 30.02 in1016.6 mb - 0.00 in0.0 mm 0.02 in0.5 mm
02:50 AM 33.4°F0.8°C 32.9°F0.5°C 98% Calm Calm -- 30.01 in1016.3 mb - 0.00 in0.0 mm 0.02 in0.5 mm
02:55 AM 33.3°F0.7°C 32.8°F0.4°C 98% Calm Calm -- 30.01 in1016.3 mb - 0.00 in0.0 mm 0.02 in0.5 mm
03:00 AM 33.3°F0.7°C 32.8°F0.4°C 98% Calm Calm -- 30.01 in1016.3 mb - 0.01 in0.3 mm 0.03 in0.8 mm
03:05 AM 33.3°F0.7°C 32.8°F0.4°C 98% 2.3 mph ENE3.7 kmh ENE 3.5 mph5.6 kmh 30.00 in1015.9 mb - 0.00 in0.0 mm 0.03 in0.8 mm
03:10 AM 33.3°F0.7°C 32.8°F0.4°C 98% Calm Calm -- 30.00 in1015.9 mb - 0.00 in0.0 mm 0.03 in0.8 mm
03:15 AM 33.3°F0.7°C 32.8°F0.4°C 98% Calm Calm 3.5 mph5.6 kmh 29.99 in1015.6 mb - 0.00 in0.0 mm 0.03 in0.8 mm
03:20 AM 33.3°F0.7°C 32.8°F0.4°C 98% 1.2 mph ENE1.9 kmh ENE 2.3 mph3.7 kmh 29.98 in1015.2 mb - 0.00 in0.0 mm 0.03 in0.8 mm
03:25 AM 33.2°F0.7°C 32.7°F0.4°C 98% 2.3 mph ENE3.7 kmh ENE 4.6 mph7.4 kmh 29.97 in1014.9 mb - 0.00 in0.0 mm 0.03 in0.8 mm
03:30 AM 33.2°F0.7°C 32.7°F0.4°C 98% 2.3 mph ENE3.7 kmh ENE 3.5 mph5.6 kmh 29.96 in1014.6 mb - 0.00 in0.0 mm 0.03 in0.8 mm
03:35 AM 33.2°F0.7°C 32.7°F0.4°C 98% 2.3 mph ENE3.7 kmh ENE 3.5 mph5.6 kmh 29.95 in1014.2 mb - 0.00 in0.0 mm 0.03 in0.8 mm
03:40 AM 33.2°F0.7°C 32.7°F0.4°C 98% 2.3 mph ENE3.7 kmh ENE 5.8 mph9.3 kmh 29.94 in1013.9 mb - 0.00 in0.0 mm 0.03 in0.8 mm
03:45 AM 33.2°F0.7°C 32.7°F0.4°C 98% 2.3 mph E3.7 kmh E 3.5 mph5.6 kmh 29.94 in1013.9 mb - 0.00 in0.0 mm 0.03 in0.8 mm
03:50 AM 33.2°F0.7°C 32.7°F0.4°C 98% 3.5 mph ENE5.6 kmh ENE 3.5 mph5.6 kmh 29.93 in1013.5 mb - 0.01 in0.3 mm 0.04 in1.0 mm
03:55 AM 33.3°F0.7°C 32.8°F0.4°C 98% 4.6 mph ENE7.4 kmh ENE 4.6 mph7.4 kmh 29.93 in1013.5 mb - 0.00 in0.0 mm 0.04 in1.0 mm
04:00 AM 33.2°F0.7°C 32.7°F0.4°C 98% 4.6 mph ENE7.4 kmh ENE 5.8 mph9.3 kmh 29.92 in1013.2 mb - 0.00 in0.0 mm 0.04 in1.0 mm
04:05 AM 33.3°F0.7°C 32.8°F0.4°C 98% 2.3 mph ENE3.7 kmh ENE 3.5 mph5.6 kmh 29.91 in1012.9 mb - 0.00 in0.0 mm 0.04 in1.0 mm
04:10 AM 33.3°F0.7°C 32.8°F0.4°C 98% 2.3 mph ENE3.7 kmh ENE 4.6 mph7.4 kmh 29.91 in1012.9 mb - 0.01 in0.3 mm 0.05 in1.3 mm
04:15 AM 33.3°F0.7°C 32.8°F0.4°C 98% Calm Calm 2.3 mph3.7 kmh 29.91 in1012.9 mb - 0.01 in0.3 mm 0.06 in1.5 mm
04:20 AM 33.3°F0.7°C 32.8°F0.4°C 98% Calm Calm 2.3 mph3.7 kmh 29.91 in1012.9 mb - 0.02 in0.5 mm 0.08 in2.0 mm
04:25 AM 33.3°F0.7°C 32.8°F0.4°C 98% Calm Calm 3.5 mph5.6 kmh 29.90 in1012.5 mb - 0.02 in0.5 mm 0.09 in2.3 mm
04:30 AM 33.3°F0.7°C 32.8°F0.4°C 98% Calm Calm -- 29.90 in1012.5 mb - 0.01 in0.3 mm 0.10 in2.5 mm
04:35 AM 33.4°F0.8°C 32.9°F0.5°C 98% Calm Calm -- 29.89 in1012.2 mb - 0.00 in0.0 mm 0.10 in2.5 mm
04:40 AM 33.4°F0.8°C 32.9°F0.5°C 98% Calm Calm -- 29.88 in1011.9 mb - 0.01 in0.3 mm 0.11 in2.8 mm
04:45 AM 33.4°F0.8°C 32.9°F0.5°C 98% Calm Calm -- 29.88 in1011.9 mb - 0.00 in0.0 mm 0.11 in2.8 mm
04:50 AM 33.4°F0.8°C 32.9°F0.5°C 98% Calm Calm -- 29.88 in1011.9 mb - 0.01 in0.3 mm 0.12 in3.0 mm
04:55 AM 33.5°F0.8°C 33.0°F0.6°C 98% Calm Calm -- 29.87 in1011.5 mb - 0.00 in0.0 mm 0.12 in3.0 mm
05:00 AM 33.5°F0.8°C 33.0°F0.6°C 98% Calm Calm -- 29.87 in1011.5 mb - 0.01 in0.3 mm 0.13 in3.3 mm
05:05 AM 33.5°F0.8°C 33.0°F0.6°C 98% 1.2 mph ENE1.9 kmh ENE 3.5 mph5.6 kmh 29.86 in1011.2 mb - 0.01 in0.3 mm 0.14 in3.6 mm
05:10 AM 33.6°F0.9°C 33.0°F0.6°C 98% 1.2 mph ENE1.9 kmh ENE 2.3 mph3.7 kmh 29.84 in1010.5 mb - 0.00 in0.0 mm 0.14 in3.6 mm
05:15 AM 33.7°F0.9°C 33.4°F0.8°C 99% 3.5 mph ENE5.6 kmh ENE 5.8 mph9.3 kmh 29.83 in1010.2 mb - 0.01 in0.3 mm 0.15 in3.8 mm
05:20 AM 33.9°F1.1°C 33.6°F0.9°C 99% 4.6 mph ENE7.4 kmh ENE 6.9 mph11.1 kmh 29.82 in1009.8 mb - 0.00 in0.0 mm 0.15 in3.8 mm
05:25 AM 34.2°F1.2°C 34.0°F1.1°C 99% 5.8 mph ENE9.3 kmh ENE 8.1 mph13.0 kmh 29.81 in1009.5 mb - 0.01 in0.3 mm 0.16 in4.1 mm
05:30 AM 34.4°F1.3°C 34.1°F1.2°C 99% 4.6 mph ENE7.4 kmh ENE 4.6 mph7.4 kmh 29.82 in1009.8 mb - 0.01 in0.3 mm 0.17 in4.3 mm
05:35 AM 34.4°F1.3°C 34.1°F1.2°C 99% 3.5 mph ENE5.6 kmh ENE 5.8 mph9.3 kmh 29.81 in1009.5 mb - 0.00 in0.0 mm 0.17 in4.3 mm
05:40 AM 34.4°F1.3°C 34.2°F1.2°C 99% 3.5 mph NE5.6 kmh NE 8.1 mph13.0 kmh 29.82 in1009.8 mb - 0.01 in0.3 mm 0.18 in4.6 mm
05:45 AM 34.6°F1.4°C 34.3°F1.3°C 99% 3.5 mph ENE5.6 kmh ENE 5.8 mph9.3 kmh 29.82 in1009.8 mb - 0.00 in0.0 mm 0.18 in4.6 mm
05:50 AM 34.6°F1.4°C 34.3°F1.3°C 99% Calm Calm 2.3 mph3.7 kmh 29.82 in1009.8 mb - 0.01 in0.3 mm 0.19 in4.8 mm
05:55 AM 34.6°F1.4°C 34.3°F1.3°C 99% 4.6 mph ENE7.4 kmh ENE 4.6 mph7.4 kmh 29.81 in1009.5 mb - 0.01 in0.3 mm 0.20 in5.1 mm
06:00 AM 34.4°F1.3°C 34.2°F1.2°C 99% 2.3 mph ENE3.7 kmh ENE 3.5 mph5.6 kmh 29.81 in1009.5 mb - 0.01 in0.3 mm 0.21 in5.3 mm
06:05 AM 34.4°F1.3°C 34.1°F1.2°C 99% 1.2 mph ENE1.9 kmh ENE 2.3 mph3.7 kmh 29.81 in1009.5 mb - 0.01 in0.3 mm 0.22 in5.6 mm
06:10 AM 34.5°F1.4°C 34.2°F1.2°C 99% Calm Calm -- 29.81 in1009.5 mb - 0.01 in0.3 mm 0.23 in5.8 mm
06:15 AM 34.4°F1.3°C 34.1°F1.2°C 99% Calm Calm -- 29.80 in1009.1 mb - 0.01 in0.3 mm 0.24 in6.1 mm
06:20 AM 34.4°F1.3°C 34.1°F1.2°C 99% Calm Calm -- 29.80 in1009.1 mb - 0.01 in0.3 mm 0.25 in6.4 mm
06:25 AM 34.4°F1.3°C 34.1°F1.2°C 99% 1.2 mph ENE1.9 kmh ENE 1.2 mph1.9 kmh 29.80 in1009.1 mb - 0.01 in0.3 mm 0.26 in6.6 mm
06:30 AM 34.4°F1.3°C 34.1°F1.2°C 99% Calm Calm -- 29.81 in1009.5 mb - 0.01 in0.3 mm 0.27 in6.9 mm
06:35 AM 34.4°F1.3°C 34.2°F1.2°C 99% Calm Calm -- 29.81 in1009.5 mb - 0.02 in0.5 mm 0.28 in7.1 mm
06:40 AM 34.4°F1.3°C 34.1°F1.2°C 99% Calm Calm -- 29.81 in1009.5 mb - 0.02 in0.5 mm 0.30 in7.6 mm
06:45 AM 34.4°F1.3°C 34.1°F1.2°C 99% Calm Calm -- 29.82 in1009.8 mb - 0.03 in0.8 mm 0.33 in8.4 mm
06:50 AM 34.4°F1.3°C 34.1°F1.2°C 99% Calm Calm -- 29.81 in1009.5 mb - 0.03 in0.8 mm 0.35 in8.9 mm
06:55 AM 34.4°F1.3°C 34.1°F1.2°C 99% Calm Calm -- 29.81 in1009.5 mb - 0.02 in0.5 mm 0.36 in9.1 mm
07:00 AM 34.4°F1.3°C 34.1°F1.2°C 99% Calm Calm -- 29.81 in1009.5 mb - 0.02 in0.5 mm 0.38 in9.7 mm
07:05 AM 34.4°F1.3°C 34.1°F1.2°C 99% Calm Calm -- 29.81 in1009.5 mb - 0.02 in0.5 mm 0.40 in10.2 mm
07:10 AM 34.4°F1.3°C 34.1°F1.2°C 99% Calm Calm -- 29.83 in1010.2 mb - 0.02 in0.5 mm 0.41 in10.4 mm
07:15 AM 34.4°F1.3°C 34.1°F1.2°C 99% Calm Calm -- 29.82 in1009.8 mb - 0.02 in0.5 mm 0.43 in10.9 mm
07:20 AM 34.4°F1.3°C 34.1°F1.2°C 99% Calm Calm -- 29.82 in1009.8 mb - 0.01 in0.3 mm 0.44 in11.2 mm
07:25 AM 34.4°F1.3°C 34.1°F1.2°C 99% Calm Calm -- 29.81 in1009.5 mb - 0.01 in0.3 mm 0.45 in11.4 mm
07:30 AM 34.4°F1.3°C 34.1°F1.2°C 99% Calm Calm -- 29.81 in1009.5 mb - 0.01 in0.3 mm 0.46 in11.7 mm
07:35 AM 34.4°F1.3°C 34.1°F1.2°C 99% Calm Calm -- 29.80 in1009.1 mb - 0.01 in0.3 mm 0.47 in11.9 mm
07:40 AM 34.4°F1.3°C 34.1°F1.2°C 99% Calm Calm -- 29.79 in1008.8 mb - 0.00 in0.0 mm 0.47 in11.9 mm
07:45 AM 34.4°F1.3°C 34.1°F1.2°C 99% Calm Calm -- 29.79 in1008.8 mb - 0.01 in0.3 mm 0.48 in12.2 mm
07:50 AM 34.4°F1.3°C 34.1°F1.2°C 99% Calm Calm -- 29.78 in1008.5 mb - 0.00 in0.0 mm 0.48 in12.2 mm
07:55 AM 34.4°F1.3°C 34.1°F1.2°C 99% Calm Calm -- 29.76 in1007.8 mb - 0.00 in0.0 mm 0.48 in12.2 mm
08:00 AM 34.4°F1.3°C 34.1°F1.2°C 99% Calm Calm -- 29.75 in1007.5 mb - 0.00 in0.0 mm 0.48 in12.2 mm
08:05 AM 34.4°F1.3°C 34.1°F1.2°C 99% 1.2 mph E1.9 kmh E 3.5 mph5.6 kmh 29.73 in1006.8 mb - 0.00 in0.0 mm 0.48 in12.2 mm
08:10 AM 34.4°F1.3°C 34.1°F1.2°C 99% Calm Calm -- 29.73 in1006.8 mb - 0.00 in0.0 mm 0.48 in12.2 mm
08:15 AM 34.4°F1.3°C 34.1°F1.2°C 99% Calm Calm -- 29.75 in1007.5 mb - 0.00 in0.0 mm 0.48 in12.2 mm
08:20 AM 34.4°F1.3°C 34.1°F1.2°C 99% Calm Calm -- 29.75 in1007.5 mb - 0.00 in0.0 mm 0.48 in12.2 mm
08:25 AM 34.4°F1.3°C 34.1°F1.2°C 99% Calm Calm -- 29.74 in1007.1 mb - 0.00 in0.0 mm 0.48 in12.2 mm
08:30 AM 34.5°F1.4°C 34.2°F1.2°C 99% Calm Calm -- 29.75 in1007.5 mb - 0.00 in0.0 mm 0.48 in12.2 mm
08:35 AM 34.6°F1.4°C 34.3°F1.3°C 99% Calm Calm -- 29.75 in1007.5 mb - 0.00 in0.0 mm 0.48 in12.2 mm
08:40 AM 34.7°F1.5°C 34.4°F1.3°C 99% 1.2 mph SE1.9 kmh SE 2.3 mph3.7 kmh 29.73 in1006.8 mb - 0.00 in0.0 mm 0.48 in12.2 mm
08:45 AM 34.8°F1.6°C 34.5°F1.4°C 99% 5.8 mph E9.3 kmh E 5.8 mph9.3 kmh 29.66 in1004.4 mb - 0.01 in0.3 mm 0.49 in12.4 mm
08:50 AM 34.8°F1.6°C 34.5°F1.4°C 99% 5.8 mph E9.3 kmh E 6.9 mph11.1 kmh 29.67 in1004.7 mb - 0.00 in0.0 mm 0.49 in12.4 mm
08:55 AM 34.9°F1.6°C 34.6°F1.4°C 99% 2.3 mph E3.7 kmh E 3.5 mph5.6 kmh 29.70 in1005.8 mb - 0.00 in0.0 mm 0.49 in12.4 mm
09:00 AM 35.1°F1.7°C 34.8°F1.6°C 99% 5.8 mph NE9.3 kmh NE 6.9 mph11.1 kmh 29.68 in1005.1 mb - 0.00 in0.0 mm 0.49 in12.4 mm
09:05 AM 35.1°F1.7°C 34.8°F1.6°C 99% 4.6 mph NE7.4 kmh NE 4.6 mph7.4 kmh 29.68 in1005.1 mb - 0.00 in0.0 mm 0.49 in12.4 mm
09:10 AM 35.1°F1.7°C 34.8°F1.6°C 99% Calm Calm -- 29.68 in1005.1 mb - 0.00 in0.0 mm 0.49 in12.4 mm
09:15 AM 35.1°F1.7°C 34.9°F1.6°C 99% 3.5 mph NE5.6 kmh NE 4.6 mph7.4 kmh 29.69 in1005.4 mb - 0.00 in0.0 mm 0.49 in12.4 mm
09:20 AM 35.2°F1.8°C 34.9°F1.6°C 99% Calm Calm -- 29.69 in1005.4 mb - 0.00 in0.0 mm 0.49 in12.4 mm
09:25 AM 35.2°F1.8°C 34.9°F1.6°C 99% Calm Calm -- 29.69 in1005.4 mb - 0.00 in0.0 mm 0.49 in12.4 mm
09:30 AM 35.2°F1.8°C 34.9°F1.6°C 99% Calm Calm -- 29.69 in1005.4 mb - 0.00 in0.0 mm 0.49 in12.4 mm
09:35 AM 35.2°F1.8°C 34.9°F1.6°C 99% Calm Calm -- 29.68 in1005.1 mb - 0.00 in0.0 mm 0.49 in12.4 mm
09:40 AM 35.2°F1.8°C 34.9°F1.6°C 99% 2.3 mph NE3.7 kmh NE 3.5 mph5.6 kmh 29.65 in1004.1 mb - 0.00 in0.0 mm 0.49 in12.4 mm
09:45 AM 35.3°F1.8°C 35.0°F1.7°C 99% Calm Calm 1.2 mph1.9 kmh 29.65 in1004.1 mb - 0.00 in0.0 mm 0.49 in12.4 mm
09:50 AM 35.3°F1.8°C 35.0°F1.7°C 99% Calm Calm -- 29.65 in1004.1 mb - 0.00 in0.0 mm 0.49 in12.4 mm
09:55 AM 35.5°F1.9°C 35.2°F1.8°C 99% 2.3 mph NE3.7 kmh NE 3.5 mph5.6 kmh 29.63 in1003.4 mb - 0.00 in0.0 mm 0.49 in12.4 mm
10:00 AM 35.6°F2.0°C 35.3°F1.8°C 99% 2.3 mph NE3.7 kmh NE 3.5 mph5.6 kmh 29.64 in1003.7 mb - 0.00 in0.0 mm 0.49 in12.4 mm
10:05 AM 35.7°F2.1°C 35.4°F1.9°C 99% Calm Calm -- 29.64 in1003.7 mb - 0.00 in0.0 mm 0.49 in12.4 mm
10:10 AM 35.8°F2.1°C 35.6°F2.0°C 99% Calm Calm -- 29.64 in1003.7 mb - 0.00 in0.0 mm 0.49 in12.4 mm
10:15 AM 36.0°F2.2°C 35.7°F2.1°C 99% Calm Calm -- 29.62 in1003.0 mb - 0.00 in0.0 mm 0.49 in12.4 mm
10:20 AM 36.1°F2.3°C 35.8°F2.1°C 99% 3.5 mph NE5.6 kmh NE 4.6 mph7.4 kmh 29.61 in1002.7 mb - 0.00 in0.0 mm 0.49 in12.4 mm
10:25 AM 36.2°F2.3°C 35.9°F2.2°C 99% Calm Calm -- 29.61 in1002.7 mb - 0.00 in0.0 mm 0.49 in12.4 mm
10:30 AM 36.4°F2.4°C 36.2°F2.3°C 99% Calm Calm -- 29.60 in1002.4 mb - 0.00 in0.0 mm 0.49 in12.4 mm
10:35 AM 36.7°F2.6°C 36.5°F2.5°C 99% Calm Calm -- 29.59 in1002.0 mb - 0.00 in0.0 mm 0.49 in12.4 mm
10:40 AM 37.0°F2.8°C 36.8°F2.7°C 99% 4.6 mph NE7.4 kmh NE 5.8 mph9.3 kmh 29.58 in1001.7 mb - 0.00 in0.0 mm 0.49 in12.4 mm
10:45 AM 37.4°F3.0°C 37.1°F2.8°C 99% 5.8 mph NE9.3 kmh NE 8.1 mph13.0 kmh 29.58 in1001.7 mb - 0.00 in0.0 mm 0.49 in12.4 mm
10:50 AM 37.6°F3.1°C 37.3°F2.9°C 99% 6.9 mph NE11.1 kmh NE 8.1 mph13.0 kmh 29.57 in1001.4 mb - 0.00 in0.0 mm 0.49 in12.4 mm
10:55 AM 37.7°F3.2°C 37.4°F3.0°C 99% 5.8 mph NE9.3 kmh NE 5.8 mph9.3 kmh 29.57 in1001.4 mb - 0.00 in0.0 mm 0.49 in12.4 mm
11:00 AM 37.8°F3.2°C 37.5°F3.1°C 99% 5.8 mph ENE9.3 kmh ENE 5.8 mph9.3 kmh 29.56 in1001.0 mb - 0.00 in0.0 mm 0.49 in12.4 mm
11:05 AM 37.8°F3.2°C 37.5°F3.1°C 99% 5.8 mph NE9.3 kmh NE 9.2 mph14.8 kmh 29.55 in1000.7 mb - 0.00 in0.0 mm 0.49 in12.4 mm
11:10 AM 37.9°F3.3°C 37.7°F3.2°C 99% Calm Calm 2.3 mph3.7 kmh 29.55 in1000.7 mb - 0.00 in0.0 mm 0.49 in12.4 mm
11:15 AM 38.1°F3.4°C 37.8°F3.2°C 99% 3.5 mph NE5.6 kmh NE 3.5 mph5.6 kmh 29.55 in1000.7 mb - 0.00 in0.0 mm 0.49 in12.4 mm
11:20 AM 38.2°F3.4°C 37.9°F3.3°C 99% Calm Calm -- 29.56 in1001.0 mb - 0.00 in0.0 mm 0.49 in12.4 mm
11:25 AM 38.3°F3.5°C 38.0°F3.3°C 99% Calm Calm -- 29.56 in1001.0 mb - 0.00 in0.0 mm 0.49 in12.4 mm
11:30 AM 38.5°F3.6°C 38.2°F3.4°C 99% Calm Calm -- 29.55 in1000.7 mb - 0.00 in0.0 mm 0.49 in12.4 mm
11:35 AM 38.6°F3.7°C 38.6°F3.7°C 100% Calm Calm -- 29.54 in1000.3 mb - 0.00 in0.0 mm 0.49 in12.4 mm
11:40 AM 38.7°F3.7°C 38.7°F3.7°C 100% Calm Calm -- 29.54 in1000.3 mb - 0.00 in0.0 mm 0.49 in12.4 mm
11:45 AM 38.8°F3.8°C 38.5°F3.6°C 99% Calm Calm -- 29.55 in1000.7 mb - 0.00 in0.0 mm 0.49 in12.4 mm
11:50 AM 38.8°F3.8°C 38.5°F3.6°C 99% Calm Calm 2.3 mph3.7 kmh 29.55 in1000.7 mb - 0.00 in0.0 mm 0.49 in12.4 mm
11:55 AM 38.8°F3.8°C 38.5°F3.6°C 99% Calm Calm -- 29.55 in1000.7 mb - 0.00 in0.0 mm 0.49 in12.4 mm
12:00 PM 38.8°F3.8°C 38.5°F3.6°C 99% Calm Calm -- 29.55 in1000.7 mb - 0.00 in0.0 mm 0.49 in12.4 mm
12:05 PM 38.8°F3.8°C 38.5°F3.6°C 99% Calm Calm 3.5 mph5.6 kmh 29.54 in1000.3 mb - 0.00 in0.0 mm 0.49 in12.4 mm
12:10 PM 38.7°F3.7°C 38.4°F3.6°C 99% 1.2 mph S1.9 kmh S 2.3 mph3.7 kmh 29.54 in1000.3 mb - 0.00 in0.0 mm 0.49 in12.4 mm
12:15 PM 38.6°F3.7°C 38.3°F3.5°C 99% Calm Calm -- 29.53 in1000.0 mb - 0.00 in0.0 mm 0.49 in12.4 mm
12:20 PM 38.6°F3.7°C 38.3°F3.5°C 99% Calm Calm 4.6 mph7.4 kmh 29.53 in1000.0 mb - 0.00 in0.0 mm 0.49 in12.4 mm
12:25 PM 38.6°F3.7°C 38.3°F3.5°C 99% 1.2 mph SW1.9 kmh SW 2.3 mph3.7 kmh 29.52 in999.7 mb - 0.00 in0.0 mm 0.49 in12.4 mm
12:30 PM 38.5°F3.6°C 38.2°F3.4°C 99% Calm Calm -- 29.52 in999.7 mb - 0.00 in0.0 mm 0.49 in12.4 mm
12:35 PM 38.6°F3.7°C 38.3°F3.5°C 99% Calm Calm -- 29.52 in999.7 mb - 0.00 in0.0 mm 0.49 in12.4 mm
12:40 PM 38.7°F3.7°C 38.4°F3.6°C 99% Calm Calm -- 29.52 in999.7 mb - 0.00 in0.0 mm 0.49 in12.4 mm
12:45 PM 38.7°F3.7°C 38.4°F3.6°C 99% Calm Calm 2.3 mph3.7 kmh 29.52 in999.7 mb - 0.00 in0.0 mm 0.49 in12.4 mm
12:50 PM 38.6°F3.7°C 38.3°F3.5°C 99% 1.2 mph SSW1.9 kmh SSW 3.5 mph5.6 kmh 29.51 in999.3 mb - 0.00 in0.0 mm 0.49 in12.4 mm
12:55 PM 38.5°F3.6°C 38.2°F3.4°C 99% 1.2 mph SW1.9 kmh SW 3.5 mph5.6 kmh 29.51 in999.3 mb - 0.00 in0.0 mm 0.49 in12.4 mm
01:00 PM 38.4°F3.6°C 38.1°F3.4°C 99% 1.2 mph SSW1.9 kmh SSW 8.1 mph13.0 kmh 29.51 in999.3 mb - 0.00 in0.0 mm 0.49 in12.4 mm
01:05 PM 38.3°F3.5°C 38.0°F3.3°C 99% 1.2 mph SSW1.9 kmh SSW 2.3 mph3.7 kmh 29.50 in999.0 mb - 0.00 in0.0 mm 0.49 in12.4 mm
01:10 PM 38.3°F3.5°C 38.0°F3.3°C 99% Calm Calm -- 29.50 in999.0 mb - 0.00 in0.0 mm 0.49 in12.4 mm
01:15 PM 38.4°F3.6°C 38.1°F3.4°C 99% Calm Calm 2.3 mph3.7 kmh 29.50 in999.0 mb - 0.00 in0.0 mm 0.49 in12.4 mm
01:20 PM 38.4°F3.6°C 38.1°F3.4°C 99% Calm Calm -- 29.50 in999.0 mb - 0.00 in0.0 mm 0.49 in12.4 mm
01:25 PM 38.5°F3.6°C 38.2°F3.4°C 99% Calm Calm -- 29.49 in998.6 mb - 0.00 in0.0 mm 0.49 in12.4 mm
01:30 PM 38.5°F3.6°C 38.2°F3.4°C 99% Calm Calm -- 29.49 in998.6 mb - 0.00 in0.0 mm 0.49 in12.4 mm
01:35 PM 38.5°F3.6°C 38.2°F3.4°C 99% Calm Calm -- 29.48 in998.3 mb - 0.00 in0.0 mm 0.49 in12.4 mm
01:40 PM 38.5°F3.6°C 38.2°F3.4°C 99% Calm Calm -- 29.47 in998.0 mb - 0.00 in0.0 mm 0.49 in12.4 mm
01:45 PM 38.5°F3.6°C 38.2°F3.4°C 99% Calm Calm -- 29.47 in998.0 mb - 0.00 in0.0 mm 0.49 in12.4 mm
01:50 PM 38.5°F3.6°C 38.2°F3.4°C 99% Calm Calm 3.5 mph5.6 kmh 29.47 in998.0 mb - 0.00 in0.0 mm 0.49 in12.4 mm
01:55 PM 38.5°F3.6°C 38.2°F3.4°C 99% Calm Calm 2.3 mph3.7 kmh 29.46 in997.6 mb - 0.00 in0.0 mm 0.49 in12.4 mm
02:00 PM 38.6°F3.7°C 38.3°F3.5°C 99% Calm Calm -- 29.45 in997.3 mb - 0.00 in0.0 mm 0.49 in12.4 mm
02:05 PM 38.6°F3.7°C 38.3°F3.5°C 99% Calm Calm -- 29.45 in997.3 mb - 0.00 in0.0 mm 0.49 in12.4 mm
02:10 PM 38.7°F3.7°C 38.4°F3.6°C 99% Calm Calm 3.5 mph5.6 kmh 29.45 in997.3 mb - 0.00 in0.0 mm 0.49 in12.4 mm
02:15 PM 38.8°F3.8°C 38.5°F3.6°C 99% Calm Calm -- 29.45 in997.3 mb - 0.00 in0.0 mm 0.49 in12.4 mm
02:20 PM 38.8°F3.8°C 38.5°F3.6°C 99% Calm Calm -- 29.44 in997.0 mb - 0.00 in0.0 mm 0.49 in12.4 mm
02:25 PM 38.9°F3.8°C 38.6°F3.7°C 99% Calm Calm -- 29.43 in996.6 mb - 0.00 in0.0 mm 0.49 in12.4 mm
02:30 PM 38.9°F3.8°C 38.6°F3.7°C 99% Calm Calm -- 29.42 in996.3 mb - 0.00 in0.0 mm 0.49 in12.4 mm
02:35 PM 38.9°F3.8°C 38.6°F3.7°C 99% Calm Calm -- 29.41 in995.9 mb - 0.00 in0.0 mm 0.49 in12.4 mm
02:40 PM 38.9°F3.8°C 38.6°F3.7°C 99% Calm Calm -- 29.41 in995.9 mb - 0.00 in0.0 mm 0.49 in12.4 mm
02:45 PM 38.9°F3.8°C 38.6°F3.7°C 99% Calm Calm -- 29.41 in995.9 mb - 0.00 in0.0 mm 0.49 in12.4 mm
02:50 PM 39.0°F3.9°C 38.7°F3.7°C 99% Calm Calm 1.2 mph1.9 kmh 29.41 in995.9 mb - 0.00 in0.0 mm 0.49 in12.4 mm
02:55 PM 39.1°F3.9°C 38.9°F3.8°C 99% Calm Calm -- 29.41 in995.9 mb - 0.00 in0.0 mm 0.49 in12.4 mm
03:00 PM 39.3°F4.1°C 39.0°F3.9°C 99% Calm Calm 2.3 mph3.7 kmh 29.41 in995.9 mb - 0.00 in0.0 mm 0.49 in12.4 mm
03:05 PM 39.4°F4.1°C 39.1°F3.9°C 99% Calm Calm -- 29.41 in995.9 mb - 0.00 in0.0 mm 0.49 in12.4 mm
03:10 PM 39.5°F4.2°C 39.2°F4.0°C 99% Calm Calm -- 29.41 in995.9 mb - 0.00 in0.0 mm 0.49 in12.4 mm
03:15 PM 39.6°F4.2°C 39.3°F4.1°C 99% Calm Calm 4.6 mph7.4 kmh 29.41 in995.9 mb - 0.00 in0.0 mm 0.49 in12.4 mm
03:20 PM 39.7°F4.3°C 39.4°F4.1°C 99% Calm Calm 1.2 mph1.9 kmh 29.41 in995.9 mb - 0.00 in0.0 mm 0.49 in12.4 mm
03:25 PM 39.8°F4.3°C 39.5°F4.2°C 99% Calm Calm -- 29.41 in995.9 mb - 0.00 in0.0 mm 0.49 in12.4 mm
03:30 PM 39.7°F4.3°C 39.4°F4.1°C 99% Calm Calm -- 29.40 in995.6 mb - 0.00 in0.0 mm 0.49 in12.4 mm
03:35 PM 39.6°F4.2°C 39.3°F4.1°C 99% Calm Calm -- 29.40 in995.6 mb - 0.00 in0.0 mm 0.49 in12.4 mm
03:40 PM 39.6°F4.2°C 39.4°F4.1°C 99% 1.2 mph WNW1.9 kmh WNW 4.6 mph7.4 kmh 29.40 in995.6 mb - 0.00 in0.0 mm 0.49 in12.4 mm
03:45 PM 39.7°F4.3°C 39.4°F4.1°C 99% 1.2 mph WSW1.9 kmh WSW 6.9 mph11.1 kmh 29.41 in995.9 mb - 0.00 in0.0 mm 0.49 in12.4 mm
03:50 PM 39.8°F4.3°C 39.5°F4.2°C 99% Calm Calm -- 29.41 in995.9 mb - 0.00 in0.0 mm 0.49 in12.4 mm
03:55 PM 39.9°F4.4°C 39.6°F4.2°C 99% Calm Calm 1.2 mph1.9 kmh 29.41 in995.9 mb - 0.00 in0.0 mm 0.49 in12.4 mm
04:00 PM 39.9°F4.4°C 39.6°F4.2°C 99% Calm Calm 3.5 mph5.6 kmh 29.41 in995.9 mb - 0.00 in0.0 mm 0.49 in12.4 mm
04:05 PM 39.8°F4.3°C 39.5°F4.2°C 99% Calm Calm 3.5 mph5.6 kmh 29.40 in995.6 mb - 0.00 in0.0 mm 0.49 in12.4 mm
04:10 PM 39.7°F4.3°C 39.5°F4.2°C 99% 1.2 mph SW1.9 kmh SW 4.6 mph7.4 kmh 29.40 in995.6 mb - 0.00 in0.0 mm 0.49 in12.4 mm
04:15 PM 39.7°F4.3°C 39.4°F4.1°C 99% Calm Calm -- 29.39 in995.3 mb - 0.00 in0.0 mm 0.49 in12.4 mm
04:20 PM 39.8°F4.3°C 39.5°F4.2°C 99% Calm Calm -- 29.39 in995.3 mb - 0.00 in0.0 mm 0.49 in12.4 mm
04:25 PM 39.9°F4.4°C 39.6°F4.2°C 99% Calm Calm -- 29.40 in995.6 mb - 0.00 in0.0 mm 0.49 in12.4 mm
04:30 PM 39.9°F4.4°C 39.6°F4.2°C 99% Calm Calm 2.3 mph3.7 kmh 29.40 in995.6 mb - 0.00 in0.0 mm 0.49 in12.4 mm
04:35 PM 39.8°F4.3°C 39.5°F4.2°C 99% Calm Calm 1.2 mph1.9 kmh 29.40 in995.6 mb - 0.00 in0.0 mm 0.49 in12.4 mm
04:40 PM 39.8°F4.3°C 39.5°F4.2°C 99% Calm Calm -- 29.40 in995.6 mb - 0.00 in0.0 mm 0.49 in12.4 mm
04:45 PM 39.7°F4.3°C 39.4°F4.1°C 99% 1.2 mph WSW1.9 kmh WSW 4.6 mph7.4 kmh 29.40 in995.6 mb - 0.00 in0.0 mm 0.49 in12.4 mm
04:50 PM 39.7°F4.3°C 39.4°F4.1°C 99% 1.2 mph SW1.9 kmh SW 5.8 mph9.3 kmh 29.40 in995.6 mb - 0.00 in0.0 mm 0.49 in12.4 mm
04:55 PM 39.7°F4.3°C 39.4°F4.1°C 99% Calm Calm 3.5 mph5.6 kmh 29.40 in995.6 mb - 0.00 in0.0 mm 0.49 in12.4 mm
05:00 PM 39.7°F4.3°C 39.4°F4.1°C 99% Calm Calm -- 29.39 in995.3 mb - 0.00 in0.0 mm 0.49 in12.4 mm
05:05 PM 39.8°F4.3°C 39.5°F4.2°C 99% Calm Calm -- 29.39 in995.3 mb - 0.00 in0.0 mm 0.49 in12.4 mm
05:10 PM 39.8°F4.3°C 39.5°F4.2°C 99% Calm Calm -- 29.39 in995.3 mb - 0.00 in0.0 mm 0.49 in12.4 mm
05:15 PM 39.8°F4.3°C 39.5°F4.2°C 99% Calm Calm -- 29.39 in995.3 mb - 0.00 in0.0 mm 0.49 in12.4 mm
05:20 PM 39.8°F4.3°C 39.5°F4.2°C 99% 1.2 mph WSW1.9 kmh WSW -- 29.39 in995.3 mb - 0.00 in0.0 mm 0.49 in12.4 mm
05:25 PM 39.8°F4.3°C 39.5°F4.2°C 99% Calm Calm 4.6 mph7.4 kmh 29.39 in995.3 mb - 0.00 in0.0 mm 0.49 in12.4 mm
05:30 PM 39.9°F4.4°C 39.6°F4.2°C 99% 1.2 mph W1.9 kmh W 3.5 mph5.6 kmh 29.40 in995.6 mb - 0.00 in0.0 mm 0.49 in12.4 mm
05:35 PM 39.9°F4.4°C 39.6°F4.2°C 99% Calm Calm -- 29.40 in995.6 mb - 0.00 in0.0 mm 0.49 in12.4 mm
05:40 PM 40.0°F4.4°C 39.7°F4.3°C 99% 1.2 mph NW1.9 kmh NW 3.5 mph5.6 kmh 29.41 in995.9 mb - 0.00 in0.0 mm 0.49 in12.4 mm
05:45 PM 40.0°F4.4°C 39.7°F4.3°C 99% Calm Calm 2.3 mph3.7 kmh 29.42 in996.3 mb - 0.00 in0.0 mm 0.49 in12.4 mm
05:50 PM 40.1°F4.5°C 39.8°F4.3°C 99% 2.3 mph SW3.7 kmh SW 6.9 mph11.1 kmh 29.42 in996.3 mb - 0.00 in0.0 mm 0.49 in12.4 mm
05:55 PM 40.1°F4.5°C 39.8°F4.3°C 99% Calm Calm -- 29.42 in996.3 mb - 0.00 in0.0 mm 0.49 in12.4 mm
06:00 PM 40.2°F4.6°C 39.9°F4.4°C 99% Calm Calm 2.3 mph3.7 kmh 29.42 in996.3 mb - 0.00 in0.0 mm 0.49 in12.4 mm
06:05 PM 40.3°F4.6°C 40.0°F4.4°C 99% 2.3 mph SSW3.7 kmh SSW 4.6 mph7.4 kmh 29.42 in996.3 mb - 0.00 in0.0 mm 0.49 in12.4 mm
06:10 PM 40.3°F4.6°C 40.0°F4.4°C 99% Calm Calm 4.6 mph7.4 kmh 29.43 in996.6 mb - 0.00 in0.0 mm 0.49 in12.4 mm
06:15 PM 40.4°F4.7°C 40.1°F4.5°C 99% 1.2 mph SW1.9 kmh SW 3.5 mph5.6 kmh 29.43 in996.6 mb - 0.00 in0.0 mm 0.49 in12.4 mm
06:20 PM 40.4°F4.7°C 40.1°F4.5°C 99% Calm Calm 2.3 mph3.7 kmh 29.43 in996.6 mb - 0.00 in0.0 mm 0.49 in12.4 mm
06:25 PM 40.3°F4.6°C 40.0°F4.4°C 99% Calm Calm 1.2 mph1.9 kmh 29.43 in996.6 mb - 0.00 in0.0 mm 0.49 in12.4 mm
06:30 PM 40.3°F4.6°C 40.0°F4.4°C 99% Calm Calm -- 29.43 in996.6 mb - 0.00 in0.0 mm 0.49 in12.4 mm
06:35 PM 40.3°F4.6°C 40.0°F4.4°C 99% Calm Calm -- 29.44 in997.0 mb - 0.00 in0.0 mm 0.49 in12.4 mm
06:40 PM 40.3°F4.6°C 40.0°F4.4°C 99% Calm Calm -- 29.44 in997.0 mb - 0.00 in0.0 mm 0.49 in12.4 mm
06:45 PM 40.3°F4.6°C 40.0°F4.4°C 99% Calm Calm -- 29.45 in997.3 mb - 0.00 in0.0 mm 0.49 in12.4 mm
06:50 PM 40.3°F4.6°C 40.0°F4.4°C 99% Calm Calm -- 29.45 in997.3 mb - 0.00 in0.0 mm 0.49 in12.4 mm
06:55 PM 40.3°F4.6°C 40.0°F4.4°C 99% 1.2 mph SW1.9 kmh SW 3.5 mph5.6 kmh 29.45 in997.3 mb - 0.00 in0.0 mm 0.49 in12.4 mm
07:00 PM 40.5°F4.7°C 40.2°F4.6°C 99% 1.2 mph WNW1.9 kmh WNW 2.3 mph3.7 kmh 29.46 in997.6 mb - 0.00 in0.0 mm 0.49 in12.4 mm
07:05 PM 40.7°F4.8°C 40.5°F4.7°C 99% Calm Calm -- 29.46 in997.6 mb - 0.00 in0.0 mm 0.49 in12.4 mm
07:10 PM 40.9°F4.9°C 40.6°F4.8°C 99% Calm Calm 3.5 mph5.6 kmh 29.46 in997.6 mb - 0.00 in0.0 mm 0.49 in12.4 mm
07:15 PM 40.9°F4.9°C 40.6°F4.8°C 99% Calm Calm 5.8 mph9.3 kmh 29.47 in998.0 mb - 0.00 in0.0 mm 0.49 in12.4 mm
07:20 PM 41.0°F5.0°C 40.7°F4.8°C 99% Calm Calm 3.5 mph5.6 kmh 29.47 in998.0 mb - 0.00 in0.0 mm 0.49 in12.4 mm
07:25 PM 41.0°F5.0°C 40.7°F4.8°C 99% 1.2 mph WSW1.9 kmh WSW 4.6 mph7.4 kmh 29.48 in998.3 mb - 0.00 in0.0 mm 0.49 in12.4 mm
07:30 PM 41.1°F5.1°C 40.8°F4.9°C 99% 2.3 mph W3.7 kmh W 8.1 mph13.0 kmh 29.48 in998.3 mb - 0.00 in0.0 mm 0.49 in12.4 mm
07:35 PM 41.3°F5.2°C 41.0°F5.0°C 99% 2.3 mph SW3.7 kmh SW 3.5 mph5.6 kmh 29.48 in998.3 mb - 0.00 in0.0 mm 0.49 in12.4 mm
07:40 PM 41.5°F5.3°C 40.4°F4.7°C 96% 4.6 mph W7.4 kmh W 11.5 mph18.5 kmh 29.48 in998.3 mb - 0.00 in0.0 mm 0.49 in12.4 mm
07:45 PM 42.3°F5.7°C 38.4°F3.6°C 86% 8.1 mph WSW13.0 kmh WSW 19.6 mph31.5 kmh 29.49 in998.6 mb - 0.00 in0.0 mm 0.49 in12.4 mm
07:50 PM 42.8°F6.0°C 37.4°F3.0°C 81% 4.6 mph WSW7.4 kmh WSW 10.4 mph16.7 kmh 29.49 in998.6 mb - 0.00 in0.0 mm 0.49 in12.4 mm
07:55 PM 43.0°F6.1°C 36.6°F2.6°C 78% 6.9 mph W11.1 kmh W 15.0 mph24.1 kmh 29.49 in998.6 mb - 0.00 in0.0 mm 0.49 in12.4 mm
08:00 PM 43.2°F6.2°C 36.5°F2.5°C 77% 4.6 mph WSW7.4 kmh WSW 8.1 mph13.0 kmh 29.49 in998.6 mb - 0.00 in0.0 mm 0.49 in12.4 mm
08:05 PM 43.1°F6.2°C 35.7°F2.1°C 75% 3.5 mph WSW5.6 kmh WSW 4.6 mph7.4 kmh 29.50 in999.0 mb - 0.00 in0.0 mm 0.49 in12.4 mm
08:10 PM 43.1°F6.2°C 36.0°F2.2°C 76% 3.5 mph WSW5.6 kmh WSW 11.5 mph18.5 kmh 29.50 in999.0 mb - 0.00 in0.0 mm 0.49 in12.4 mm
08:15 PM 43.0°F6.1°C 35.6°F2.0°C 75% 3.5 mph SW5.6 kmh SW 8.1 mph13.0 kmh 29.50 in999.0 mb - 0.00 in0.0 mm 0.49 in12.4 mm
08:20 PM 43.0°F6.1°C 35.0°F1.7°C 73% 6.9 mph WSW11.1 kmh WSW 11.5 mph18.5 kmh 29.50 in999.0 mb - 0.00 in0.0 mm 0.49 in12.4 mm
08:25 PM 43.3°F6.3°C 34.5°F1.4°C 71% 9.2 mph W14.8 kmh W 15.0 mph24.1 kmh 29.51 in999.3 mb - 0.00 in0.0 mm 0.49 in12.4 mm
08:30 PM 43.3°F6.3°C 34.9°F1.6°C 72% 4.6 mph WSW7.4 kmh WSW 13.8 mph22.2 kmh 29.51 in999.3 mb - 0.00 in0.0 mm 0.49 in12.4 mm
08:35 PM 43.2°F6.2°C 34.4°F1.3°C 71% 8.1 mph W13.0 kmh W 11.5 mph18.5 kmh 29.51 in999.3 mb - 0.00 in0.0 mm 0.49 in12.4 mm
08:40 PM 43.1°F6.2°C 34.4°F1.3°C 71% 2.3 mph W3.7 kmh W 11.5 mph18.5 kmh 29.50 in999.0 mb - 0.00 in0.0 mm 0.49 in12.4 mm
08:45 PM 42.9°F6.1°C 34.5°F1.4°C 72% 1.2 mph WSW1.9 kmh WSW 5.8 mph9.3 kmh 29.50 in999.0 mb - 0.00 in0.0 mm 0.49 in12.4 mm
08:50 PM 42.7°F5.9°C 33.9°F1.1°C 71% 5.8 mph W9.3 kmh W 6.9 mph11.1 kmh 29.50 in999.0 mb - 0.00 in0.0 mm 0.49 in12.4 mm
08:55 PM 42.5°F5.8°C 33.8°F1.0°C 71% 1.2 mph W1.9 kmh W 4.6 mph7.4 kmh 29.50 in999.0 mb - 0.00 in0.0 mm 0.49 in12.4 mm
09:00 PM 42.4°F5.8°C 33.7°F0.9°C 71% 3.5 mph WSW5.6 kmh WSW 15.0 mph24.1 kmh 29.50 in999.0 mb - 0.00 in0.0 mm 0.49 in12.4 mm
09:05 PM 42.5°F5.8°C 33.4°F0.8°C 70% 5.8 mph WSW9.3 kmh WSW 10.4 mph16.7 kmh 29.50 in999.0 mb - 0.00 in0.0 mm 0.49 in12.4 mm
09:10 PM 42.6°F5.9°C 33.2°F0.7°C 69% 6.9 mph W11.1 kmh W 11.5 mph18.5 kmh 29.50 in999.0 mb - 0.00 in0.0 mm 0.49 in12.4 mm
09:15 PM 42.7°F5.9°C 33.2°F0.7°C 69% 8.1 mph WSW13.0 kmh WSW 18.4 mph29.6 kmh 29.51 in999.3 mb - 0.00 in0.0 mm 0.49 in12.4 mm
09:20 PM 42.8°F6.0°C 33.3°F0.7°C 69% 5.8 mph WSW9.3 kmh WSW 11.5 mph18.5 kmh 29.51 in999.3 mb - 0.00 in0.0 mm 0.49 in12.4 mm
09:25 PM 42.8°F6.0°C 32.6°F0.3°C 67% 4.6 mph W7.4 kmh W 6.9 mph11.1 kmh 29.51 in999.3 mb - 0.00 in0.0 mm 0.49 in12.4 mm
09:30 PM 42.6°F5.9°C 32.4°F0.2°C 67% 3.5 mph SW5.6 kmh SW 9.2 mph14.8 kmh 29.50 in999.0 mb - 0.00 in0.0 mm 0.49 in12.4 mm
09:35 PM 42.4°F5.8°C 32.2°F0.1°C 67% 2.3 mph WSW3.7 kmh WSW 4.6 mph7.4 kmh 29.51 in999.3 mb - 0.00 in0.0 mm 0.49 in12.4 mm
09:40 PM 42.3°F5.7°C 31.7°F-0.2°C 66% 6.9 mph WSW11.1 kmh WSW 21.9 mph35.2 kmh 29.51 in999.3 mb - 0.00 in0.0 mm 0.49 in12.4 mm
09:45 PM 42.3°F5.7°C 31.4°F-0.3°C 65% 5.8 mph WSW9.3 kmh WSW 9.2 mph14.8 kmh 29.51 in999.3 mb - 0.00 in0.0 mm 0.49 in12.4 mm
09:50 PM 42.2°F5.7°C 31.3°F-0.4°C 65% 6.9 mph WSW11.1 kmh WSW 11.5 mph18.5 kmh 29.51 in999.3 mb - 0.00 in0.0 mm 0.49 in12.4 mm
09:55 PM 42.2°F5.7°C 31.3°F-0.4°C 65% 5.8 mph W9.3 kmh W 16.1 mph25.9 kmh 29.51 in999.3 mb - 0.00 in0.0 mm 0.49 in12.4 mm
10:00 PM 42.2°F5.7°C 31.3°F-0.4°C 65% 5.8 mph WSW9.3 kmh WSW 10.4 mph16.7 kmh 29.51 in999.3 mb - 0.00 in0.0 mm 0.49 in12.4 mm
10:05 PM 42.2°F5.7°C 31.6°F-0.2°C 66% 6.9 mph WNW11.1 kmh WNW 10.4 mph16.7 kmh 29.52 in999.7 mb - 0.00 in0.0 mm 0.49 in12.4 mm
10:10 PM 41.9°F5.5°C 31.3°F-0.4°C 66% 5.8 mph W9.3 kmh W 15.0 mph24.1 kmh 29.52 in999.7 mb - 0.00 in0.0 mm 0.49 in12.4 mm
10:15 PM 41.6°F5.3°C 31.1°F-0.5°C 66% 5.8 mph WSW9.3 kmh WSW 8.1 mph13.0 kmh 29.53 in1000.0 mb - 0.00 in0.0 mm 0.49 in12.4 mm
10:20 PM 41.5°F5.3°C 31.0°F-0.6°C 66% 6.9 mph W11.1 kmh W 12.7 mph20.4 kmh 29.53 in1000.0 mb - 0.00 in0.0 mm 0.49 in12.4 mm
10:25 PM 41.5°F5.3°C 30.6°F-0.8°C 65% 6.9 mph W11.1 kmh W 13.8 mph22.2 kmh 29.53 in1000.0 mb - 0.00 in0.0 mm 0.49 in12.4 mm
10:30 PM 41.5°F5.3°C 30.6°F-0.8°C 65% 10.4 mph W16.7 kmh W 24.2 mph38.9 kmh 29.54 in1000.3 mb - 0.00 in0.0 mm 0.49 in12.4 mm
10:35 PM 41.3°F5.2°C 29.6°F-1.3°C 63% 8.1 mph W13.0 kmh W 32.2 mph51.8 kmh 29.54 in1000.3 mb - 0.00 in0.0 mm 0.49 in12.4 mm
10:40 PM 41.2°F5.1°C 29.1°F-1.6°C 62% 10.4 mph WNW16.7 kmh WNW 18.4 mph29.6 kmh 29.54 in1000.3 mb - 0.00 in0.0 mm 0.49 in12.4 mm
10:45 PM 41.0°F5.0°C 29.4°F-1.4°C 63% 4.6 mph W7.4 kmh W 12.7 mph20.4 kmh 29.54 in1000.3 mb - 0.00 in0.0 mm 0.49 in12.4 mm
10:50 PM 40.8°F4.9°C 29.2°F-1.6°C 63% 9.2 mph W14.8 kmh W 11.5 mph18.5 kmh 29.54 in1000.3 mb - 0.00 in0.0 mm 0.49 in12.4 mm
10:55 PM 40.8°F4.9°C 29.2°F-1.6°C 63% 8.1 mph W13.0 kmh W 11.5 mph18.5 kmh 29.54 in1000.3 mb - 0.00 in0.0 mm 0.49 in12.4 mm
11:00 PM 40.7°F4.8°C 29.1°F-1.6°C 63% 2.3 mph WSW3.7 kmh WSW 6.9 mph11.1 kmh 29.54 in1000.3 mb - 0.00 in0.0 mm 0.49 in12.4 mm
11:05 PM 40.4°F4.7°C 28.8°F-1.8°C 63% 5.8 mph W9.3 kmh W 11.5 mph18.5 kmh 29.54 in1000.3 mb - 0.00 in0.0 mm 0.49 in12.4 mm
11:10 PM 40.3°F4.6°C 29.1°F-1.6°C 64% 1.2 mph WSW1.9 kmh WSW 6.9 mph11.1 kmh 29.54 in1000.3 mb - 0.00 in0.0 mm 0.49 in12.4 mm
11:15 PM 40.1°F4.5°C 28.5°F-1.9°C 63% 6.9 mph WSW11.1 kmh WSW 10.4 mph16.7 kmh 29.54 in1000.3 mb - 0.00 in0.0 mm 0.49 in12.4 mm
11:20 PM 40.2°F4.6°C 28.2°F-2.1°C 62% 4.6 mph WSW7.4 kmh WSW 9.2 mph14.8 kmh 29.54 in1000.3 mb - 0.00 in0.0 mm 0.49 in12.4 mm
11:25 PM 40.2°F4.6°C 28.6°F-1.9°C 63% 6.9 mph W11.1 kmh W 18.4 mph29.6 kmh 29.53 in1000.0 mb - 0.00 in0.0 mm 0.49 in12.4 mm
11:30 PM 40.1°F4.5°C 28.5°F-1.9°C 63% 4.6 mph W7.4 kmh W 6.9 mph11.1 kmh 29.54 in1000.3 mb - 0.00 in0.0 mm 0.49 in12.4 mm
11:35 PM 39.8°F4.3°C 27.9°F-2.3°C 62% 3.5 mph W5.6 kmh W 10.4 mph16.7 kmh 29.53 in1000.0 mb - 0.00 in0.0 mm 0.49 in12.4 mm
11:40 PM 39.8°F4.3°C 27.8°F-2.3°C 62% 1.2 mph WSW1.9 kmh WSW 8.1 mph13.0 kmh 29.54 in1000.3 mb - 0.00 in0.0 mm 0.49 in12.4 mm
11:45 PM 39.7°F4.3°C 27.7°F-2.4°C 62% 3.5 mph W5.6 kmh W 11.5 mph18.5 kmh 29.54 in1000.3 mb - 0.00 in0.0 mm 0.49 in12.4 mm
11:50 PM 39.6°F4.2°C 27.2°F-2.7°C 61% 5.8 mph W9.3 kmh W 9.2 mph14.8 kmh 29.54 in1000.3 mb - 0.00 in0.0 mm 0.49 in12.4 mm
11:55 PM 39.5°F4.2°C 27.2°F-2.7°C 61% 1.2 mph W1.9 kmh W 4.6 mph7.4 kmh 29.54 in1000.3 mb - 0.00 in0.0 mm 0.49 in12.4 mm